createdAt,value
2022-08-11T00:01:14.423Z,34.80
2022-08-11T00:03:48.828Z,34.40
2022-08-11T00:06:26.570Z,34.70
2022-08-11T00:08:55.677Z,34.70
2022-08-11T00:11:32.637Z,34.40
2022-08-11T00:14:04.046Z,34.40
2022-08-11T00:16:32.819Z,34.40
2022-08-11T00:19:01.928Z,34.40
2022-08-11T00:22:03.848Z,34.50
2022-08-11T00:24:19.452Z,34.40
2022-08-11T00:26:50.276Z,34.30
2022-08-11T00:29:20.470Z,34.50
2022-08-11T00:31:51.758Z,34.70
2022-08-11T00:34:23.829Z,34.70
2022-08-11T00:36:54.502Z,34.80
2022-08-11T00:39:28.476Z,34.60
2022-08-11T00:42:12.286Z,34.50
2022-08-11T00:45:01.582Z,34.80
2022-08-11T00:47:43.866Z,34.90
2022-08-11T00:50:28.184Z,34.80
2022-08-11T00:53:25.309Z,35.00
2022-08-11T00:56:19.058Z,35.00
2022-08-11T00:59:34.178Z,34.90
2022-08-11T01:02:17.303Z,35.00
2022-08-11T01:05:16.013Z,34.70
2022-08-11T01:08:13.618Z,34.90
2022-08-11T01:10:59.786Z,34.90
2022-08-11T01:14:00.209Z,34.90
2022-08-11T01:17:00.550Z,35.00
2022-08-11T01:20:46.181Z,34.70
2022-08-11T01:23:38.247Z,34.80
2022-08-11T01:26:59.133Z,34.70
2022-08-11T01:30:08.168Z,34.70
2022-08-11T01:33:04.493Z,34.70
2022-08-11T01:35:59.689Z,34.80
2022-08-11T01:38:52.426Z,34.70
2022-08-11T01:42:17.895Z,34.90
2022-08-11T01:45:13.137Z,35.00
2022-08-11T01:47:52.901Z,34.90
2022-08-11T01:50:38.232Z,34.60
2022-08-11T01:53:17.034Z,34.90
2022-08-11T01:55:57.313Z,34.90
2022-08-11T01:58:39.541Z,34.80
2022-08-11T02:01:29.514Z,34.80
2022-08-11T02:04:11.612Z,34.90
2022-08-11T02:06:58.220Z,34.90
2022-08-11T02:09:55.258Z,34.90
2022-08-11T02:12:39.785Z,35.10
2022-08-11T02:15:22.904Z,34.90
2022-08-11T02:18:00.056Z,34.70
2022-08-11T02:20:59.614Z,34.90
2022-08-11T02:24:04.912Z,34.90
2022-08-11T02:26:41.049Z,34.80
2022-08-11T02:29:16.726Z,35.00
2022-08-11T02:32:25.969Z,35.10
2022-08-11T02:35:16.053Z,35.20
2022-08-11T02:37:51.821Z,35.10
2022-08-11T02:40:28.232Z,35.10
2022-08-11T02:43:19.032Z,35.10
2022-08-11T02:45:56.372Z,35.60
2022-08-11T02:48:54.935Z,35.20
2022-08-11T02:51:31.097Z,35.40
2022-08-11T02:54:09.789Z,35.10
2022-08-11T02:56:52.062Z,35.40
2022-08-11T02:59:53.414Z,35.40
2022-08-11T03:02:44.121Z,35.60
2022-08-11T03:05:24.989Z,35.20
2022-08-11T03:08:08.399Z,35.30
2022-08-11T03:10:44.944Z,35.50
2022-08-11T03:13:35.845Z,35.10
2022-08-11T03:16:32.044Z,35.40
2022-08-11T03:19:09.607Z,35.30
2022-08-11T03:22:01.429Z,35.20
2022-08-11T03:24:40.791Z,35.40
2022-08-11T03:27:11.994Z,35.20
2022-08-11T03:29:47.478Z,35.20
2022-08-11T03:32:29.885Z,35.40
2022-08-11T03:35:01.257Z,35.70
2022-08-11T03:37:54.783Z,35.20
2022-08-11T03:40:53.273Z,35.80
2022-08-11T03:43:35.705Z,35.60
2022-08-11T03:46:12.905Z,35.40
2022-08-11T03:48:55.588Z,35.30
2022-08-11T03:51:28.302Z,35.80
2022-08-11T03:54:23.365Z,35.40
2022-08-11T03:57:40.914Z,35.50
2022-08-11T04:00:40.905Z,36.00
2022-08-11T04:03:54.227Z,35.60
2022-08-11T04:06:52.206Z,35.70
2022-08-11T04:10:02.053Z,35.70
2022-08-11T04:12:47.899Z,35.70
2022-08-11T04:15:56.354Z,35.50
2022-08-11T04:19:02.610Z,35.70
2022-08-11T04:22:06.314Z,35.70
2022-08-11T04:24:58.977Z,35.70
2022-08-11T04:28:28.861Z,35.50
2022-08-11T04:31:10.189Z,35.90
2022-08-11T04:34:14.337Z,35.60
2022-08-11T04:37:13.529Z,36.00
2022-08-11T04:39:58.284Z,35.70
2022-08-11T04:43:23.059Z,35.80
2022-08-11T04:46:31.776Z,36.00
2022-08-11T04:49:38.901Z,35.90
2022-08-11T04:52:55.744Z,35.90
2022-08-11T04:56:18.597Z,36.00
2022-08-11T04:59:19.398Z,36.00
2022-08-11T05:02:17.180Z,35.80
2022-08-11T05:05:40.246Z,36.00
2022-08-11T05:08:55.262Z,36.30
2022-08-11T05:11:42.045Z,36.20
2022-08-11T05:14:54.516Z,36.40
2022-08-11T05:17:52.111Z,36.60
2022-08-11T05:20:43.704Z,36.50
2022-08-11T05:23:31.186Z,36.50
2022-08-11T05:26:47.439Z,36.50
2022-08-11T05:29:58.725Z,36.70
2022-08-11T05:32:52.207Z,37.30
2022-08-11T05:36:00.347Z,37.00
2022-08-11T05:38:40.908Z,37.40
2022-08-11T05:41:30.003Z,37.30
2022-08-11T05:44:21.144Z,37.60
2022-08-11T05:47:08.635Z,37.90
2022-08-11T05:49:56.632Z,38.10
2022-08-11T05:52:49.180Z,38.50
2022-08-11T05:55:51.056Z,38.90
2022-08-11T05:58:39.776Z,39.00
2022-08-11T06:01:11.725Z,39.50
2022-08-11T06:03:57.571Z,39.70
2022-08-11T06:06:29.046Z,39.90
2022-08-11T06:08:59.606Z,40.00
2022-08-11T06:11:43.067Z,40.40
2022-08-11T06:14:13.249Z,40.50
2022-08-11T06:16:43.297Z,40.60
2022-08-11T06:19:11.424Z,40.90
2022-08-11T06:21:45.122Z,40.90
2022-08-11T06:24:15.846Z,41.20
2022-08-11T06:27:11.203Z,41.50
2022-08-11T06:29:47.611Z,41.80
2022-08-11T06:32:17.474Z,41.80
2022-08-11T06:35:02.965Z,42.00
2022-08-11T06:37:43.522Z,42.60
2022-08-11T06:40:28.413Z,42.80
2022-08-11T06:43:02.118Z,43.10
2022-08-11T06:45:34.489Z,43.90
2022-08-11T06:48:03.250Z,45.60
2022-08-11T06:50:50.249Z,48.40
2022-08-11T06:53:21.022Z,51.30
2022-08-11T06:56:09.078Z,54.20
2022-08-11T06:58:58.803Z,55.30
2022-08-11T07:01:47.792Z,55.30
2022-08-11T07:04:36.936Z,52.60
2022-08-11T07:07:51.621Z,48.70
2022-08-11T07:10:47.547Z,48.00
2022-08-11T07:13:44.142Z,49.00
2022-08-11T07:16:18.179Z,50.00
2022-08-11T07:19:16.714Z,50.50
2022-08-11T07:22:05.965Z,50.40
2022-08-11T07:24:59.437Z,50.30
2022-08-11T07:27:54.733Z,50.10
2022-08-11T07:30:27.224Z,49.90
2022-08-11T07:32:58.400Z,49.10
2022-08-11T07:35:36.934Z,48.70
2022-08-11T07:38:11.656Z,48.40
2022-08-11T07:40:40.132Z,47.80
2022-08-11T07:43:08.329Z,51.20
2022-08-11T07:45:58.318Z,47.00
2022-08-11T07:48:43.941Z,49.60
2022-08-11T07:51:29.393Z,45.70
2022-08-11T07:54:14.468Z,48.60
2022-08-11T07:56:55.522Z,44.20
2022-08-11T08:02:52.507Z,44.00
2022-08-11T08:05:38.356Z,44.00
2022-08-11T08:08:26.365Z,44.00
2022-08-11T08:11:15.178Z,43.50
2022-08-11T08:14:01.623Z,42.90
2022-08-11T08:16:49.154Z,42.80
2022-08-11T08:19:21.615Z,42.30
2022-08-11T08:21:50.446Z,41.80
2022-08-11T08:24:21.047Z,42.00
2022-08-11T08:26:59.480Z,41.10
2022-08-11T08:29:47.216Z,40.90
2022-08-11T08:32:17.368Z,40.90
2022-08-11T08:34:47.720Z,55.40
2022-08-11T08:37:45.082Z,40.40
2022-08-11T08:40:09.467Z,40.50
2022-08-11T08:42:45.274Z,39.70
2022-08-11T08:45:16.204Z,40.10
2022-08-11T08:50:22.314Z,39.60
2022-08-11T08:53:00.041Z,39.90
2022-08-11T08:55:31.282Z,44.60
2022-08-11T08:58:01.310Z,39.50
2022-08-11T09:00:40.610Z,39.70
2022-08-11T09:03:36.664Z,39.70
2022-08-11T09:05:58.813Z,39.10
2022-08-11T09:08:27.493Z,38.60
2022-08-11T09:11:15.470Z,38.60
2022-08-11T09:13:44.683Z,38.20
2022-08-11T09:16:13.414Z,42.80
2022-08-11T09:18:44.965Z,38.30
2022-08-11T09:21:48.099Z,37.90
2022-08-11T09:24:26.356Z,37.60
2022-08-11T09:27:02.809Z,37.70
2022-08-11T09:29:32.645Z,37.60
2022-08-11T09:32:01.366Z,37.40
2022-08-11T09:34:30.126Z,37.20
2022-08-11T09:37:53.436Z,36.80
2022-08-11T09:40:27.279Z,36.50
2022-08-11T09:43:13.598Z,36.40
2022-08-11T09:45:41.876Z,36.30
2022-08-11T09:48:09.994Z,36.00
2022-08-11T09:50:40.184Z,35.50
2022-08-11T09:53:41.064Z,35.40
2022-08-11T09:56:22.495Z,34.80
2022-08-11T09:58:50.263Z,34.60
2022-08-11T10:01:27.971Z,34.40
2022-08-11T10:04:00.960Z,34.00
2022-08-11T10:06:48.294Z,33.40
2022-08-11T10:09:25.997Z,32.90
2022-08-11T10:11:58.708Z,32.50
2022-08-11T10:14:46.710Z,32.00
2022-08-11T10:17:16.953Z,31.50
2022-08-11T10:20:01.958Z,31.00
2022-08-11T10:22:52.607Z,30.70
2022-08-11T10:25:40.009Z,30.70
2022-08-11T10:28:28.805Z,30.40
2022-08-11T10:31:16.666Z,30.60
2022-08-11T10:34:01.840Z,30.60
2022-08-11T10:36:31.636Z,30.60
2022-08-11T10:39:01.186Z,30.60
2022-08-11T10:42:06.124Z,30.70
2022-08-11T10:44:44.176Z,30.90
2022-08-11T10:47:32.297Z,30.90
2022-08-11T10:50:18.944Z,30.90
2022-08-11T10:53:06.667Z,30.90
2022-08-11T10:55:54.099Z,31.00
2022-08-11T10:58:45.781Z,31.20
2022-08-11T11:01:14.573Z,31.30
2022-08-11T11:03:43.230Z,31.30
2022-08-11T11:06:29.144Z,31.40
2022-08-11T11:09:04.502Z,31.80
2022-08-11T11:11:54.687Z,31.80
2022-08-11T11:14:49.969Z,32.00
2022-08-11T11:17:47.604Z,32.20
2022-08-11T11:20:34.759Z,32.10
2022-08-11T11:23:09.344Z,32.30
2022-08-11T11:26:10.202Z,32.30
2022-08-11T11:29:07.547Z,32.40
2022-08-11T11:31:50.013Z,33.10
2022-08-11T11:34:32.756Z,32.50
2022-08-11T11:37:02.965Z,32.60
2022-08-11T11:39:33.412Z,32.60
2022-08-11T11:42:04.257Z,32.80
2022-08-11T11:44:33.346Z,32.70
2022-08-11T11:47:03.418Z,32.70
2022-08-11T11:49:32.568Z,32.70
2022-08-11T11:52:01.770Z,32.70
2022-08-11T11:54:33.729Z,33.10
2022-08-11T11:57:24.462Z,33.10
2022-08-11T12:00:10.884Z,33.00
2022-08-11T12:02:42.962Z,32.80
2022-08-11T12:05:14.790Z,32.90
2022-08-11T12:08:05.091Z,32.90
2022-08-11T12:10:44.094Z,32.90
2022-08-11T12:13:32.312Z,32.90
2022-08-11T12:16:34.190Z,33.00
2022-08-11T12:18:56.909Z,33.00
2022-08-11T12:21:26.018Z,33.10
2022-08-11T12:24:13.272Z,33.00
2022-08-11T12:27:16.298Z,33.10
2022-08-11T12:29:51.332Z,33.10
2022-08-11T12:32:24.254Z,33.20
2022-08-11T12:34:54.013Z,33.20
2022-08-11T12:37:30.029Z,33.30
2022-08-11T12:40:43.635Z,33.30
2022-08-11T12:43:37.753Z,33.30
2022-08-11T12:46:10.112Z,33.20
2022-08-11T12:49:02.725Z,33.20
2022-08-11T12:52:01.543Z,33.40
2022-08-11T12:54:51.519Z,33.30
2022-08-11T12:57:44.095Z,33.20
2022-08-11T13:00:30.541Z,33.20
2022-08-11T13:03:16.984Z,33.00
2022-08-11T13:05:49.508Z,33.30
2022-08-11T13:08:20.689Z,33.30
2022-08-11T13:11:10.082Z,33.30
2022-08-11T13:13:54.580Z,33.50
2022-08-11T13:16:27.220Z,33.60
2022-08-11T13:18:56.325Z,33.90
2022-08-11T13:21:24.845Z,33.70
2022-08-11T13:24:00.635Z,33.70
2022-08-11T13:26:47.466Z,33.90
2022-08-11T13:29:23.032Z,33.80
2022-08-11T13:31:52.389Z,33.80
2022-08-11T13:34:22.429Z,33.80
2022-08-11T13:36:53.018Z,33.60
2022-08-11T13:39:24.400Z,33.60
2022-08-11T13:41:55.122Z,33.60
2022-08-11T13:44:26.003Z,33.60
2022-08-11T13:46:55.498Z,33.60
2022-08-11T13:49:24.263Z,33.50
2022-08-11T13:51:52.423Z,33.50
2022-08-11T13:54:24.935Z,33.50
2022-08-11T13:56:55.999Z,33.40
2022-08-11T13:59:30.225Z,33.40
2022-08-11T14:02:28.425Z,33.30
2022-08-11T14:04:56.001Z,33.30
2022-08-11T14:07:26.821Z,33.40
2022-08-11T14:09:59.478Z,33.40
2022-08-11T14:12:47.980Z,33.30
2022-08-11T14:15:21.246Z,33.10
2022-08-11T14:17:54.885Z,33.10
2022-08-11T14:20:40.071Z,33.10
2022-08-11T14:23:10.904Z,33.00
2022-08-11T14:26:02.380Z,32.90
2022-08-11T14:28:39.945Z,32.90
2022-08-11T14:31:12.957Z,33.00
2022-08-11T14:33:59.505Z,33.10
2022-08-11T14:36:33.942Z,33.10
2022-08-11T14:39:05.464Z,33.20
2022-08-11T14:42:11.154Z,33.20
2022-08-11T14:45:01.234Z,33.50
2022-08-11T14:47:31.615Z,33.40
2022-08-11T14:50:10.097Z,33.40
2022-08-11T14:52:45.675Z,33.60
2022-08-11T14:55:32.222Z,33.50
2022-08-11T14:58:02.538Z,33.40
2022-08-11T15:00:32.076Z,33.50
2022-08-11T15:03:13.493Z,33.30
2022-08-11T15:05:56.453Z,33.20
2022-08-11T15:08:46.941Z,33.30
2022-08-11T15:11:34.921Z,33.30
2022-08-11T15:14:07.133Z,33.10
2022-08-11T15:16:54.593Z,33.10
2022-08-11T15:19:22.937Z,33.00
2022-08-11T15:22:08.697Z,33.00
2022-08-11T15:24:37.460Z,33.10
2022-08-11T15:27:27.829Z,33.10
2022-08-11T15:30:32.149Z,33.10
2022-08-11T15:33:23.438Z,33.20
2022-08-11T15:36:10.817Z,33.10
2022-08-11T15:38:43.337Z,33.10
2022-08-11T15:41:32.337Z,33.20
2022-08-11T15:44:19.758Z,33.20
2022-08-11T15:46:55.300Z,33.10
2022-08-11T15:50:10.926Z,33.10
2022-08-11T15:52:20.645Z,33.20
2022-08-11T15:54:50.246Z,33.20
2022-08-11T15:57:40.126Z,33.10
2022-08-11T16:00:27.369Z,33.20
2022-08-11T16:03:17.173Z,33.10
2022-08-11T16:05:50.770Z,33.10
2022-08-11T16:08:32.730Z,33.00
2022-08-11T16:11:03.971Z,32.90
2022-08-11T16:14:06.881Z,32.90
2022-08-11T16:16:35.341Z,32.90
2022-08-11T16:19:05.682Z,32.90
2022-08-11T16:21:36.337Z,32.90
2022-08-11T16:24:07.600Z,33.00
2022-08-11T16:27:07.471Z,33.00
2022-08-11T16:29:28.084Z,32.90
2022-08-11T16:32:14.700Z,32.80
2022-08-11T16:35:03.906Z,32.80
2022-08-11T16:37:52.416Z,32.80
2022-08-11T16:40:22.586Z,32.70
2022-08-11T16:43:11.642Z,32.50
2022-08-11T16:45:59.652Z,32.50
2022-08-11T16:48:35.574Z,32.40
2022-08-11T16:51:06.866Z,32.50
2022-08-11T16:53:46.094Z,32.50
2022-08-11T16:56:26.501Z,32.50
2022-08-11T16:59:15.633Z,32.50
2022-08-11T17:01:47.075Z,33.10
2022-08-11T17:04:50.965Z,32.60
2022-08-11T17:07:42.977Z,32.70
2022-08-11T17:10:53.768Z,32.70
2022-08-11T17:13:34.719Z,32.70
2022-08-11T17:16:08.551Z,33.20
2022-08-11T17:18:43.070Z,32.70
2022-08-11T17:21:15.496Z,32.80
2022-08-11T17:23:47.027Z,32.80
2022-08-11T17:26:18.770Z,32.90
2022-08-11T17:28:51.686Z,32.90
2022-08-11T17:31:39.517Z,32.90
2022-08-11T17:34:27.168Z,32.80
2022-08-11T17:36:56.195Z,32.80
2022-08-11T17:39:30.181Z,32.80
2022-08-11T17:42:17.909Z,32.80
2022-08-11T17:45:04.782Z,32.70
2022-08-11T17:47:51.074Z,32.70
2022-08-11T17:50:19.873Z,32.80
2022-08-11T17:53:06.407Z,32.80
2022-08-11T17:55:55.681Z,32.80
2022-08-11T17:58:44.888Z,32.80
2022-08-11T18:01:13.543Z,32.80
2022-08-11T18:03:41.701Z,32.70
2022-08-11T18:06:22.284Z,32.70
2022-08-11T18:09:22.694Z,32.80
2022-08-11T18:12:13.010Z,32.80
2022-08-11T18:15:00.615Z,32.90
2022-08-11T18:17:46.191Z,32.90
2022-08-11T18:20:31.804Z,32.80
2022-08-11T18:23:18.111Z,32.70
2022-08-11T18:26:06.379Z,32.80
2022-08-11T18:29:02.257Z,32.80
2022-08-11T18:31:51.740Z,33.00
2022-08-11T18:34:42.846Z,32.80
2022-08-11T18:37:37.351Z,33.00
2022-08-11T18:40:26.863Z,33.00
2022-08-11T18:43:16.033Z,32.90
2022-08-11T18:46:07.858Z,32.90
2022-08-11T18:48:55.282Z,33.10
2022-08-11T18:51:42.169Z,32.90
2022-08-11T18:54:30.511Z,33.50
2022-08-11T18:57:20.556Z,33.00
2022-08-11T19:00:07.128Z,33.00
2022-08-11T19:02:57.389Z,32.90
2022-08-11T19:06:32.026Z,33.20
2022-08-11T19:08:54.129Z,33.00
2022-08-11T19:11:43.641Z,33.10
2022-08-11T19:14:31.226Z,33.00
2022-08-11T19:17:43.853Z,33.10
2022-08-11T19:20:29.665Z,33.10
2022-08-11T19:23:16.621Z,33.10
2022-08-11T19:26:03.837Z,33.00
2022-08-11T19:28:50.773Z,33.10
2022-08-11T19:31:42.308Z,33.00
2022-08-11T19:34:32.133Z,33.00
2022-08-11T19:37:24.072Z,33.00
2022-08-11T19:40:11.607Z,33.10
2022-08-11T19:42:59.013Z,33.00
2022-08-11T19:45:52.613Z,33.10
2022-08-11T19:48:40.033Z,33.00
2022-08-11T19:51:27.333Z,33.00
2022-08-11T19:54:15.258Z,33.70
2022-08-11T19:57:02.797Z,33.10
2022-08-11T19:59:49.883Z,33.20
2022-08-11T20:02:35.675Z,33.30
2022-08-11T20:05:21.654Z,33.30
2022-08-11T20:08:08.257Z,33.30
2022-08-11T20:10:55.390Z,33.40
2022-08-11T20:13:43.824Z,33.50
2022-08-11T20:16:32.302Z,33.50
2022-08-11T20:19:19.833Z,33.50
2022-08-11T20:22:13.460Z,33.60
2022-08-11T20:25:01.148Z,33.50
2022-08-11T20:27:51.265Z,33.70
2022-08-11T20:30:39.600Z,33.70
2022-08-11T20:33:26.597Z,33.60
2022-08-11T20:36:12.513Z,33.60
2022-08-11T20:38:59.162Z,33.70
2022-08-11T20:41:58.370Z,33.80
2022-08-11T20:44:48.171Z,33.90
2022-08-11T20:47:56.097Z,33.90
2022-08-11T20:50:41.445Z,33.70
2022-08-11T20:53:28.009Z,33.40
2022-08-11T20:56:15.846Z,33.50
2022-08-11T20:59:16.739Z,33.50
2022-08-11T21:02:09.986Z,33.50
2022-08-11T21:04:57.403Z,33.60
2022-08-11T21:07:55.650Z,33.60
2022-08-11T21:10:47.078Z,33.60
2022-08-11T21:13:37.165Z,33.50
2022-08-11T21:16:27.009Z,33.60
2022-08-11T21:20:01.892Z,33.60
2022-08-11T21:22:31.284Z,33.80
2022-08-11T21:25:18.579Z,33.40
2022-08-11T21:28:06.678Z,33.50
2022-08-11T21:30:57.540Z,33.60
2022-08-11T21:33:46.049Z,33.60
2022-08-11T21:36:33.809Z,33.60
2022-08-11T21:39:24.878Z,33.70
2022-08-11T21:42:12.201Z,33.70
2022-08-11T21:45:00.270Z,33.60
2022-08-11T21:47:47.184Z,33.60
2022-08-11T21:50:32.733Z,33.40
2022-08-11T21:53:19.949Z,33.40
2022-08-11T21:56:06.456Z,33.50
2022-08-11T21:58:52.945Z,33.50
2022-08-11T22:01:40.440Z,33.50
2022-08-11T22:04:26.573Z,33.60
2022-08-11T22:07:13.363Z,33.40
2022-08-11T22:10:00.664Z,33.30
2022-08-11T22:13:05.827Z,33.30
2022-08-11T22:15:51.377Z,33.30
2022-08-11T22:18:36.934Z,33.40
2022-08-11T22:21:59.562Z,33.30
2022-08-11T22:24:30.445Z,33.40
2022-08-11T22:27:17.173Z,33.30
2022-08-11T22:30:02.677Z,33.40
2022-08-11T22:32:48.569Z,33.50
2022-08-11T22:35:35.548Z,33.50
2022-08-11T22:38:21.488Z,33.40
2022-08-11T22:41:06.861Z,33.40
2022-08-11T22:43:53.506Z,33.40
2022-08-11T22:46:40.193Z,33.50
2022-08-11T22:49:27.227Z,33.60
2022-08-11T22:52:13.841Z,33.60
2022-08-11T22:55:04.580Z,33.70
2022-08-11T22:58:01.162Z,33.80
2022-08-11T23:00:48.840Z,33.70
2022-08-11T23:03:37.369Z,33.70
2022-08-11T23:06:24.654Z,33.70
2022-08-11T23:09:11.179Z,33.70
2022-08-11T23:12:05.962Z,33.60
2022-08-11T23:14:54.649Z,33.60
2022-08-11T23:17:42.452Z,33.50
2022-08-11T23:20:39.561Z,33.60
2022-08-11T23:23:32.366Z,33.60
2022-08-11T23:26:19.018Z,33.70
2022-08-11T23:29:05.034Z,33.50
2022-08-11T23:31:53.869Z,33.60
2022-08-11T23:35:04.162Z,33.70
2022-08-11T23:37:50.487Z,33.80
2022-08-11T23:40:36.109Z,33.60
2022-08-11T23:43:22.540Z,33.80
2022-08-11T23:46:08.393Z,33.90
2022-08-11T23:48:56.281Z,33.80
2022-08-11T23:51:45.430Z,33.90
2022-08-11T23:54:36.956Z,33.90
2022-08-11T23:57:23.244Z,33.80
